Latest Weather Observations for Tindal

IDD60801

Issued at 5:31 pm CST Monday 25 September 2017 (issued every 30 minutes, with the page automatically refreshed every 10 minutes)

About weather observations | Map of weather stations | Latest weather observations for NT | Other Formats
Station Details ID: 014932 Name: TINDAL RAAF Lat: -14.52 Lon: 132.38 Height: 133.6 m
Data from the previous 72 hours. | See also: Recent months at Tindal
Date/Time
CST
Temp
°C
App
Temp
°C
Dew
Point
°C
Rel
Hum
%
Delta-T
°C
Wind Press
QNH
hPa
Press
MSL
hPa
Rain since
9am
mm
Dir  Spd
km/h
Gust
km/h
Spd
kts
Gust
kts
25/05:30pm 37.3 37.9 15.7 27 13.8 W 7 13 4 7 1007.9 1007.1 0.0
25/05:00pm 37.8 38.5 16.1 27 13.9 ESE 7 13 4 7 1007.8 1007.0 0.0
25/04:30pm 37.3 38.0 15.7 27 13.8 S 6 13 3 7 1008.1 1007.2 0.0
25/04:00pm 37.6 37.1 16.0 28 13.8 W 13 22 7 12 1008.1 1007.2 0.0
25/03:30pm 37.3 37.7 16.3 29 13.5 NW 9 13 5 7 1008.5 1007.6 0.0
25/03:00pm 37.4 37.5 16.4 29 13.5 W 11 19 6 10 1008.8 1007.9 0.0
25/02:30pm 36.5 37.4 17.6 32 12.3 E 9 17 5 9 1009.3 1008.4 0.0
25/02:00pm 35.3 36.6 17.5 34 11.5 W 7 15 4 8 1009.8 1008.9 0.0
25/01:30pm 35.6 36.2 18.7 37 11.2 WSW 13 22 7 12 1010.3 1009.4 0.0
25/01:00pm 35.6 37.2 19.1 38 10.9 W 9 19 5 10 1010.8 1009.9 0.0
25/12:30pm 34.4 35.5 18.8 39 10.3 WNW 11 28 6 15 1011.5 1010.7 0.0
25/12:00pm 33.3 34.6 19.4 44 9.2 NNW 11 17 6 9 1012.1 1011.3 0.0
25/11:30am 32.9 34.8 19.7 45 8.8 WNW 9 19 5 10 1012.8 1012.0 0.0
25/11:00am 32.6 33.2 20.2 48 8.3 WNW 17 26 9 14 1013.3 1012.5 0.0
25/10:30am 31.7 32.0 19.7 49 7.9 W 17 22 9 12 1013.6 1012.8 0.0
25/10:00am 31.3 32.1 20.6 53 7.2 WNW 17 22 9 12 1013.7 1012.9 0.0
25/09:30am 29.6 30.8 20.7 58 5.9 W 15 20 8 11 1014.1 1013.3 0.0
25/09:00am 29.7 31.0 21.6 61 5.5 WNW 17 22 9 12 1014.1 1013.3 0.0
25/08:30am 28.7 30.4 21.7 66 4.7 NW 15 24 8 13 1013.9 1013.1 0.0
25/08:00am 27.6 29.4 21.9 71 3.8 NW 15 24 8 13 1013.7 1012.9 0.0
25/07:30am 26.8 29.7 21.8 74 3.4 NNW 9 15 5 8 1013.5 1012.7 0.0
25/07:00am 26.0 29.3 21.4 76 3.1 NNW 6 9 3 5 1013.3 1012.5 0.0
25/06:30am 25.7 28.4 21.4 77 2.9 NNW 9 13 5 7 1012.8 1012.0 0.0
25/06:00am 26.0 28.2 21.2 75 3.2 NNW 11 13 6 7 1012.4 1011.6 0.0
25/05:30am 26.3 28.2 21.3 74 3.3 NNW 13 19 7 10 1012.0 1011.2 0.0
25/05:00am 26.5 28.1 20.8 71 3.8 NNW 13 19 7 10 1011.7 1010.9 0.0
25/04:30am 26.6 28.2 20.7 70 3.9 NNW 13 17 7 9 1011.4 1010.6 0.0
25/04:00am 27.0 28.4 20.3 66 4.4 NNW 13 17 7 9 1011.2 1010.3 0.0
25/03:30am 27.3 28.5 19.9 64 4.9 N 13 17 7 9 1011.1 1010.2 0.0
25/03:00am 27.7 28.5 19.8 62 5.2 N 15 24 8 13 1011.0 1010.1 0.0
25/02:30am 28.0 29.5 19.8 61 5.4 N 11 15 6 8 1010.7 1009.8 0.0
25/02:00am 28.5 28.3 19.4 57 5.9 NNW 19 32 10 17 1010.6 1009.7 0.0
25/01:30am 29.0 28.9 18.7 53 6.7 NW 17 20 9 11 1010.7 1009.8 0.0
25/01:00am 29.7 28.5 18.5 51 7.2 NNW 22 33 12 18 1010.7 1009.8 0.0
25/12:30am 30.2 29.5 18.3 49 7.7 NNW 19 24 10 13 1010.7 1009.8 0.0
25/12:00am 30.8 30.0 19.2 50 7.6 NNW 22 32 12 17 1010.7 1009.8 0.0
 
Date/Time
CST
Temp
°C
App
Temp
°C
Dew
Point
°C
Rel
Hum
%
Delta-T
°C
Wind Press
QNH
hPa
Press
MSL
hPa
Rain since
9am
mm
Dir  Spd
km/h
Gust
km/h
Spd
kts
Gust
kts
24/11:30pm 31.4 30.5 19.1 48 8.1 NNW 22 33 12 18 1010.9 1010.0 0.0
24/11:00pm 31.1 30.6 17.8 45 8.6 NNW 17 20 9 11 1010.6 1009.7 0.0
24/10:30pm 27.7 30.6 18.1 56 6.1 CALM 0 0 0 0 1010.0 1009.1 0.0
24/10:00pm 28.4 31.2 17.9 53 6.7 CALM 0 0 0 0 1009.8 1008.9 0.0
24/09:30pm 29.1 31.7 17.6 50 7.3 CALM 0 0 0 0 1009.6 1008.7 0.0
24/09:00pm 29.2 31.8 17.4 49 7.5 CALM 0 0 0 0 1009.3 1008.4 0.0
24/08:30pm 30.8 33.1 16.8 43 8.9 CALM 0 0 0 0 1009.0 1008.1 0.0
24/08:00pm 31.4 33.9 17.3 43 9.0 CALM 0 0 0 0 1008.8 1007.9 0.0
24/07:30pm 32.2 34.4 16.5 39 10.0 CALM 0 4 0 2 1008.5 1007.6 0.0
24/07:00pm 33.9 34.9 16.3 35 11.2 SW 6 7 3 4 1008.2 1007.3 0.0
24/06:30pm 35.7 36.3 15.4 29 12.8 W 6 7 3 4 1007.8 1007.0 0.0
24/06:00pm 36.9 37.3 14.8 26 13.9 W 6 7 3 4 1007.6 1006.8 0.0
24/05:30pm 37.2 36.8 15.1 27 14.0 W 11 15 6 8 1007.5 1006.7 0.0
24/05:00pm 37.5 37.3 14.7 25 14.3 NW 9 13 5 7 1007.5 1006.7 0.0
24/04:30pm 37.6 37.4 14.8 25 14.4 WNW 9 15 5 8 1007.5 1006.7 0.0
24/04:00pm 37.4 37.6 14.7 26 14.3 NNE 7 15 4 8 1007.6 1006.8 0.0
24/03:30pm 37.4 36.6 15.2 26 14.1 NNW 13 19 7 10 1007.9 1007.1 0.0
24/03:00pm 36.9 37.0 15.4 28 13.6 NNE 9 17 5 9 1008.3 1007.4 0.0
24/02:30pm 37.0 37.1 15.5 28 13.7 W 9 15 5 8 1008.7 1007.8 0.0
24/02:00pm 36.4 36.3 16.0 29 13.0 W 11 17 6 9 1009.1 1008.2 0.0
24/01:30pm 36.5 37.2 17.1 31 12.6 WSW 9 17 5 9 1009.7 1008.8 0.0
24/01:00pm 36.0 36.9 16.7 31 12.4 NNE 7 13 4 7 1010.3 1009.4 0.0
24/12:30pm 35.2 36.0 17.4 34 11.5 WNW 9 19 5 10 1011.1 1010.2 0.0
24/12:00pm 34.8 35.5 18.0 37 11.0 SW 11 20 6 11 1011.6 1010.8 0.0
24/11:30am 34.3 35.6 17.5 36 10.9 WSW 7 20 4 11 1012.2 1011.4 0.0
24/11:00am 33.3 33.5 18.6 41 9.6 NW 15 22 8 12 1012.7 1011.9 0.0
24/10:30am 32.0 32.5 19.3 47 8.4 NW 15 24 8 13 1013.1 1012.3 0.0
24/10:00am 31.3 31.8 19.3 49 7.9 WNW 15 22 8 12 1013.6 1012.8 0.0
24/09:30am 30.4 30.7 19.7 52 7.0 NW 17 22 9 12 1014.0 1013.2 0.0
24/09:00am 29.9 30.1 20.2 56 6.4 NW 19 24 10 13 1014.0 1013.2 0.0
24/08:30am 28.7 29.7 20.2 60 5.6 NW 15 22 8 12 1013.8 1013.0 0.0
24/08:00am 27.5 28.9 20.3 65 4.7 NNW 13 19 7 10 1013.8 1013.0 0.0
24/07:30am 26.5 28.7 20.3 68 4.1 NNW 9 13 5 7 1013.6 1012.8 0.0
24/07:00am 25.8 28.4 20.1 71 3.7 NNW 6 9 3 5 1013.2 1012.4 0.0
24/06:30am 25.6 28.0 19.7 70 3.8 N 6 9 3 5 1012.8 1012.0 0.0
24/06:00am 25.5 27.2 19.4 69 3.9 NNW 9 11 5 6 1012.7 1011.9 0.0
24/05:30am 26.0 26.9 19.2 66 4.4 NNW 13 15 7 8 1012.5 1011.7 0.0
24/05:00am 26.3 27.3 18.7 63 4.9 NNW 11 15 6 8 1012.5 1011.7 0.0
24/04:30am 26.9 27.1 18.5 60 5.4 NNW 15 20 8 11 1012.2 1011.4 0.0
24/04:00am 27.2 27.4 17.7 56 6.0 NNW 13 17 7 9 1012.1 1011.3 0.0
24/03:30am 28.0 27.6 17.2 52 6.8 N 15 20 8 11 1011.9 1011.1 0.0
24/03:00am 28.5 28.5 17.1 50 7.2 N 13 19 7 10 1011.9 1011.1 0.0
24/02:30am 29.0 29.4 17.2 49 7.5 N 11 15 6 8 1012.1 1011.3 0.0
24/02:00am 29.1 28.8 17.3 49 7.5 N 15 24 8 13 1012.2 1011.4 0.0
24/01:30am 29.0 28.2 18.4 52 6.8 NNW 20 30 11 16 1011.7 1010.9 0.0
24/01:00am 29.4 28.5 19.1 54 6.7 NNW 22 33 12 18 1011.8 1011.0 0.0
24/12:30am 29.6 28.9 19.6 55 6.6 NW 22 32 12 17 1011.8 1011.0 0.0
24/12:00am 30.0 29.5 19.1 52 7.1 NNW 20 28 11 15 1011.9 1011.1 0.0
 
Date/Time
CST
Temp
°C
App
Temp
°C
Dew
Point
°C
Rel
Hum
%
Delta-T
°C
Wind Press
QNH
hPa
Press
MSL
hPa
Rain since
9am
mm
Dir  Spd
km/h
Gust
km/h
Spd
kts
Gust
kts
23/11:30pm 29.7 28.2 15.4 42 8.8 N 17 28 9 15 1012.0 1011.2 0.0
23/11:00pm 25.9 27.4 14.7 50 6.7 CALM 0 0 0 0 1011.5 1010.7 0.0
23/10:30pm 26.5 26.8 14.6 48 7.2 SE 6 6 3 3 1011.4 1010.6 0.0
23/10:00pm 27.5 28.8 14.2 44 8.0 CALM 0 0 0 0 1011.3 1010.4 0.0
23/09:30pm 27.5 27.7 14.2 44 8.0 E 6 11 3 6 1011.2 1010.3 0.0
23/09:00pm 28.8 29.4 14.2 40 8.8 ENE 4 7 2 4 1010.8 1009.9 0.0
23/08:30pm 29.7 30.9 13.9 38 9.6 CALM 0 0 0 0 1010.4 1009.5 0.0
23/08:00pm 30.1 31.4 14.2 38 9.7 CALM 0 0 0 0 1010.1 1009.2 0.0
23/07:30pm 31.9 33.2 14.1 34 10.9 CALM 0 0 0 0 1009.8 1008.9 0.0
23/07:00pm 33.5 33.3 13.0 29 12.4 W 6 7 3 4 1009.5 1008.6 0.0
23/06:30pm 35.9 35.2 11.5 23 14.6 W 6 7 3 4 1009.3 1008.4 0.0
23/06:00pm 37.3 35.8 10.6 20 15.8 W 9 11 5 6 1009.2 1008.3 0.0
23/05:30pm 37.4 36.3 10.7 20 15.9 NE 7 11 4 6 1009.0 1008.1 0.0
23/05:00pm 37.5 36.0 10.7 20 15.9 ENE 9 13 5 7 1008.9 1008.0 0.0
23/04:30pm 37.9 36.9 10.3 19 16.3 NNE 6 11 3 6 1008.9 1008.0 0.0
23/04:00pm 38.1 36.2 10.5 19 16.4 NE 11 17 6 9 1009.0 1008.1 0.0
23/03:30pm 38.4 37.5 11.5 20 16.2 NE 7 15 4 8 1009.2 1008.3 0.0
23/03:00pm 37.6 35.0 10.8 20 16.0 SSE 15 20 8 11 1009.5 1008.6 0.0
23/02:30pm 38.2 36.7 10.5 19 16.5 NW 9 17 5 9 1010.0 1009.1 0.0
23/02:00pm 36.8 35.0 10.9 21 15.4 E 11 17 6 9 1010.5 1009.6 0.0
23/01:30pm 36.8 35.8 12.3 23 14.9 N 9 17 5 9 1011.0 1010.1 0.0
23/01:00pm 36.4 34.9 13.2 25 14.2 NNE 13 20 7 11 1011.6 1010.8 0.0
23/12:30pm 35.8 36.3 15.0 29 13.1 NNW 6 13 3 7 1012.3 1011.5 0.0
23/12:00pm 34.3 34.7 15.2 31 12.0 SE 7 15 4 8 1012.9 1012.1 0.0
23/11:30am 35.1 35.0 15.9 31 12.2 WNW 11 20 6 11 1013.6 1012.8 0.0
23/11:00am 33.5 33.0 15.9 34 11.1 ENE 13 17 7 9 1014.0 1013.2 0.0
23/10:30am 32.4 33.0 16.7 39 10.0 W 9 15 5 8 1014.7 1013.9 0.0
23/10:00am 31.7 33.8 19.3 47 8.2 WSW 7 13 4 7 1014.9 1014.1 0.0
23/09:30am 30.5 32.6 20.1 53 6.9 WSW 9 17 5 9 1015.2 1014.4 0.0
23/09:00am 29.0 30.6 19.9 58 6.0 NW 11 15 6 8 1015.2 1014.4 0.0
23/08:30am 28.4 30.4 19.9 60 5.6 WNW 9 15 5 8 1015.1 1014.3 0.0
23/08:00am 27.5 29.7 19.3 61 5.3 NW 6 11 3 6 1014.9 1014.1 0.0
23/07:30am 25.4 28.7 19.1 68 4.1 CALM 0 0 0 0 1014.6 1013.8 0.0
23/07:00am 24.1 27.0 18.3 70 3.7 CALM 0 0 0 0 1014.3 1013.5 0.0
23/06:30am 24.5 27.5 18.4 69 3.9 CALM 0 0 0 0 1014.0 1013.2 0.0
23/06:00am 25.5 27.6 18.9 67 4.2 N 6 7 3 4 1013.6 1012.8 0.0
23/05:30am 25.9 27.9 18.8 65 4.6 N 6 7 3 4 1013.3 1012.5 0.0
23/05:00am 26.3 27.7 18.7 63 4.9 N 9 11 5 6 1013.0 1012.2 0.0
23/04:30am 26.5 27.5 18.6 62 5.1 NNW 11 13 6 7 1012.6 1011.8 0.0
23/04:00am 26.7 28.1 18.6 61 5.2 NNW 9 13 5 7 1012.4 1011.6 0.0
23/03:30am 27.2 27.8 18.5 59 5.6 NNW 13 17 7 9 1012.5 1011.7 0.0
23/03:02am 27.7 28.7 18.7 58 5.8 NNW 11 15 6 8 1012.7 1011.9 0.0
23/03:00am 27.8 28.5 18.8 58 5.8 NNW 13 15 7 8 1012.7 1011.9 0.0
23/02:41am 27.9 28.3 18.9 58 5.8 NNW 15 20 8 11 1012.7 1011.9 0.0
23/02:30am 28.1 28.2 19.1 58 5.8 NNW 17 22 9 12 1012.7 1011.9 0.0
23/02:00am 27.9 29.2 19.4 60 5.5 NNW 11 15 6 8 1012.9 1012.1 0.0
23/01:30am 28.0 29.3 18.4 56 6.2 NNW 9 15 5 8 1013.0 1012.2 0.0
23/01:00am 28.1 28.7 16.7 50 7.1 NNW 9 11 5 6 1013.0 1012.2 0.0
23/12:30am 29.4 29.4 15.1 41 8.8 N 9 15 5 8 1013.0 1012.2 0.0
23/12:00am 30.4 28.1 14.1 37 9.9 N 19 28 10 15 1013.0 1012.2 0.0
 
Date/Time
CST
Temp
°C
App
Temp
°C
Dew
Point
°C
Rel
Hum
%
Delta-T
°C
Wind Press
QNH
hPa
Press
MSL
hPa
Rain since
9am
mm
Dir  Spd
km/h
Gust
km/h
Spd
kts
Gust
kts
22/11:30pm 25.7 23.6 11.1 40 8.3 ESE 13 20 7 11 1012.1 1011.3 0.0
22/11:00pm 23.4 22.3 12.1 49 6.4 SE 9 13 5 7 1012.0 1011.2 0.0
22/10:30pm 24.6 25.3 12.2 46 7.1 CALM 0 0 0 0 1012.2 1011.4 0.0
22/10:00pm 25.8 26.3 11.6 41 8.1 CALM 0 0 0 0 1012.1 1011.3 0.0
22/09:30pm 25.9 26.4 11.6 40 8.2 CALM 0 0 0 0 1011.9 1011.1 0.0
22/09:00pm 26.1 25.1 12.2 42 8.1 SE 9 9 5 5 1011.7 1010.9 0.0
22/08:30pm 27.1 27.6 11.6 38 8.9 CALM 0 0 0 0 1011.3 1010.4 0.0
22/08:00pm 28.7 29.1 11.3 34 10.0 CALM 0 0 0 0 1010.8 1009.9 0.0
22/07:30pm 30.1 30.2 11.6 32 10.8 E 2 6 1 3 1010.5 1009.6 0.0
22/07:00pm 31.8 30.8 11.0 28 12.1 E 7 9 4 5 1010.1 1009.2 0.0
22/06:30pm 34.8 32.8 7.0 18 15.4 E 7 11 4 6 1009.8 1008.9 0.0
22/06:00pm 36.7 35.4 5.9 15 17.0 N 2 6 1 3 1009.6 1008.7 0.0

Other Formats:

Comma delimited format used in spreadsheet applications
http://www.bom.gov.au/fwo/IDD60801/IDD60801.94131.axf

JavaScript Object Notation format (JSON) in row-major order
http://www.bom.gov.au/fwo/IDD60801/IDD60801.94131.json